Cleveland, OH

11:01 PM EDT on August 31, 2016 (GMT -0400)
APRSWXNET | | Change Station
Active Advisory: Beach Hazard Statement

Elev 959 ft 41.54 °N, 81.44 °W | Updated 27 minutes ago

Mostly Cloudy
Mostly Cloudy
69 °F
Feels Like 69 °F
N
1
Wind Variable Wind from NW
Gusts 8.0 mph

Today
High -- | Low -- °F
--% Chance of Precip.
Yesterday
High -- | Low -- °F
Precip. -- in
Pressure 30.01 in
Visibility 10.0 miles
Clouds Few 2500 ft
Scattered Clouds 4000 ft
Mostly Cloudy 12000 ft
Dew Point 63 °F
Humidity 80%
Rainfall in
Snow Depth Not available.
6:51 AM 7:59 PM
Waning Crescent, 0% visible
METAR KCGF 010245Z 01012KT 10SM FEW025 SCT040 BKN120 22/17 A3001
Pressure 30.01 in
Visibility 10.0 miles
Clouds Few 2500 ft
Scattered Clouds 4000 ft
Mostly Cloudy 12000 ft
Dew Point 63 °F
Humidity 80%
Rainfall in
Snow Depth Not available.
6:51 AM 7:59 PM
Waning Crescent, 0% visible
METAR KCGF 010245Z 01012KT 10SM FEW025 SCT040 BKN120 22/17 A3001

10-Day Weather Forecast

Almanac

Astronomy

Aug. 31, 2016 Rise Set
Actual Time
Civil Twilight
Nautical Twilight
Astronomical Twilight
Moon
Length of Visible Light
Length of Day
Tomorrow will be .
, % of the Moon is Illuminated

Today's Extremes

State Highs State Lows

Community

WunderPhotos

Upload Photos

1,936,291 photos uploaded!

WunderBlog® & News

Nearby

Air Quality

  Air Quality AQ Index Pollutant
Not available.

Snow Depth

Station Depth Elevation

Earthquake Activity

City Distance Mag. Time & Date
Minimum magnitude displayed is 2.5.

Coastal Water Temperatures

Place Temperature

Stations

Nearby Weather Stations

Station Location Temp. Windchill Dew Point Humidity Wind Precip. Elev Updated Type
                   

Watches & Warnings

Beach Hazard Statement
Issued: 9:17 PM EDT Aug. 31, 2016 – National Weather Service

... Beach hazards statement remains in effect through late
Thursday night...

* locations... beaches off... Erie... Lorain... Cuyahoga... lake and
Ashtabula counties.

* Rip current risk... high swimming risk

* hazards... tonight through late Thursday night.

* Timing... tonight through late Thursday night.

* Potential impacts... a high risk of swimming hazards means that
large waves and dangerous conditions are expected... including
rip currents. Conditions are life threatening. Stay out of the
water... even if you are a good swimmer.

Precautionary/preparedness actions...

A beach hazards statement is issued when swimming risks exist
from a combination of wind and large waves including rip currents
and longshore currents. These swimming risks can create life-
threatening conditions even for good swimmers. Follow the
instruction of local authorities or stay out of the water.